sensor_id;sensor_type;location;lat;lon;timestamp;temperature;humidity
9980;DHT22;5030;51.532;6.766;2022-12-24T00:00:21;11.10;99.90
9980;DHT22;5030;51.532;6.766;2022-12-24T00:02:49;11.00;99.90
9980;DHT22;5030;51.532;6.766;2022-12-24T00:05:16;11.00;99.90
9980;DHT22;5030;51.532;6.766;2022-12-24T00:07:42;11.10;99.90
9980;DHT22;5030;51.532;6.766;2022-12-24T00:10:08;11.00;99.90
9980;DHT22;5030;51.532;6.766;2022-12-24T00:12:34;11.10;99.90
9980;DHT22;5030;51.532;6.766;2022-12-24T00:15:00;11.00;99.90
9980;DHT22;5030;51.532;6.766;2022-12-24T00:17:25;11.00;99.90
9980;DHT22;5030;51.532;6.766;2022-12-24T00:19:51;11.00;99.90
9980;DHT22;5030;51.532;6.766;2022-12-24T00:22:17;11.10;99.90
9980;DHT22;5030;51.532;6.766;2022-12-24T00:24:42;11.10;99.90
9980;DHT22;5030;51.532;6.766;2022-12-24T00:27:08;11.00;99.90
9980;DHT22;5030;51.532;6.766;2022-12-24T00:29:33;11.00;99.90
9980;DHT22;5030;51.532;6.766;2022-12-24T00:31:59;11.00;99.90
9980;DHT22;5030;51.532;6.766;2022-12-24T00:34:25;11.10;99.90
9980;DHT22;5030;51.532;6.766;2022-12-24T00:36:51;11.00;99.90
9980;DHT22;5030;51.532;6.766;2022-12-24T00:39:17;11.00;99.90
9980;DHT22;5030;51.532;6.766;2022-12-24T00:41:42;11.00;99.90
9980;DHT22;5030;51.532;6.766;2022-12-24T00:44:08;10.90;99.90
9980;DHT22;5030;51.532;6.766;2022-12-24T00:46:35;10.80;99.90
9980;DHT22;5030;51.532;6.766;2022-12-24T00:49:03;10.80;99.90
9980;DHT22;5030;51.532;6.766;2022-12-24T00:51:29;10.70;99.90
9980;DHT22;5030;51.532;6.766;2022-12-24T00:53:54;10.60;99.90
9980;DHT22;5030;51.532;6.766;2022-12-24T00:56:21;10.70;99.90
9980;DHT22;5030;51.532;6.766;2022-12-24T00:58:46;10.80;99.90
9980;DHT22;5030;51.532;6.766;2022-12-24T01:01:13;10.70;99.90
9980;DHT22;5030;51.532;6.766;2022-12-24T01:03:38;10.70;99.90
9980;DHT22;5030;51.532;6.766;2022-12-24T01:06:07;10.70;99.90
9980;DHT22;5030;51.532;6.766;2022-12-24T01:08:34;10.60;99.90
9980;DHT22;5030;51.532;6.766;2022-12-24T01:11:01;10.60;99.90
9980;DHT22;5030;51.532;6.766;2022-12-24T01:13:27;10.50;99.90
9980;DHT22;5030;51.532;6.766;2022-12-24T01:15:53;10.40;99.90
9980;DHT22;5030;51.532;6.766;2022-12-24T01:18:19;10.40;99.90
9980;DHT22;5030;51.532;6.766;2022-12-24T01:20:45;10.30;99.90
9980;DHT22;5030;51.532;6.766;2022-12-24T01:23:10;10.30;99.90
9980;DHT22;5030;51.532;6.766;2022-12-24T01:25:37;10.40;99.90
9980;DHT22;5030;51.532;6.766;2022-12-24T01:28:03;10.40;99.90
9980;DHT22;5030;51.532;6.766;2022-12-24T01:30:29;10.40;99.90
9980;DHT22;5030;51.532;6.766;2022-12-24T01:32:55;10.40;99.90
9980;DHT22;5030;51.532;6.766;2022-12-24T01:35:20;10.40;99.90
9980;DHT22;5030;51.532;6.766;2022-12-24T01:37:46;10.40;99.90
9980;DHT22;5030;51.532;6.766;2022-12-24T01:40:16;10.50;99.90
9980;DHT22;5030;51.532;6.766;2022-12-24T01:43:00;10.40;99.90
9980;DHT22;5030;51.532;6.766;2022-12-24T01:45:52;10.30;99.90
9980;DHT22;5030;51.532;6.766;2022-12-24T01:50:43;10.30;99.90
9980;DHT22;5030;51.532;6.766;2022-12-24T01:53:10;10.20;99.90
9980;DHT22;5030;51.532;6.766;2022-12-24T01:55:37;10.10;99.90
9980;DHT22;5030;51.532;6.766;2022-12-24T01:58:04;10.10;99.90
9980;DHT22;5030;51.532;6.766;2022-12-24T02:00:29;10.00;99.90
9980;DHT22;5030;51.532;6.766;2022-12-24T02:02:55;10.00;99.90
9980;DHT22;5030;51.532;6.766;2022-12-24T02:05:28;9.90;99.90
9980;DHT22;5030;51.532;6.766;2022-12-24T02:07:55;9.90;99.90
9980;DHT22;5030;51.532;6.766;2022-12-24T02:10:22;9.90;99.90
9980;DHT22;5030;51.532;6.766;2022-12-24T02:12:48;9.90;99.90
9980;DHT22;5030;51.532;6.766;2022-12-24T02:15:16;9.80;99.90
9980;DHT22;5030;51.532;6.766;2022-12-24T02:28:52;9.80;99.90
9980;DHT22;5030;51.532;6.766;2022-12-24T02:31:42;9.80;99.90
9980;DHT22;5030;51.532;6.766;2022-12-24T02:34:29;9.80;99.90
9980;DHT22;5030;51.532;6.766;2022-12-24T02:39:36;9.90;99.90
9980;DHT22;5030;51.532;6.766;2022-12-24T02:42:05;9.90;99.90
9980;DHT22;5030;51.532;6.766;2022-12-24T02:44:44;9.90;99.90
9980;DHT22;5030;51.532;6.766;2022-12-24T02:47:12;9.90;99.90
9980;DHT22;5030;51.532;6.766;2022-12-24T02:49:43;9.80;99.90
9980;DHT22;5030;51.532;6.766;2022-12-24T02:52:38;9.90;99.90
9980;DHT22;5030;51.532;6.766;2022-12-24T02:55:18;9.90;99.90
9980;DHT22;5030;51.532;6.766;2022-12-24T03:06:32;9.70;99.90
9980;DHT22;5030;51.532;6.766;2022-12-24T03:09:26;9.60;99.90
9980;DHT22;5030;51.532;6.766;2022-12-24T03:12:08;9.50;99.90
9980;DHT22;5030;51.532;6.766;2022-12-24T03:14:36;9.50;99.90
9980;DHT22;5030;51.532;6.766;2022-12-24T03:17:03;9.50;99.90
9980;DHT22;5030;51.532;6.766;2022-12-24T03:19:30;9.50;99.90
9980;DHT22;5030;51.532;6.766;2022-12-24T03:21:57;9.60;99.90
9980;DHT22;5030;51.532;6.766;2022-12-24T03:24:23;9.60;99.90
9980;DHT22;5030;51.532;6.766;2022-12-24T03:26:50;9.60;99.90
9980;DHT22;5030;51.532;6.766;2022-12-24T03:29:17;9.70;99.90
9980;DHT22;5030;51.532;6.766;2022-12-24T03:31:45;9.70;99.90
9980;DHT22;5030;51.532;6.766;2022-12-24T03:34:12;9.80;99.90
9980;DHT22;5030;51.532;6.766;2022-12-24T03:36:38;9.80;99.90
9980;DHT22;5030;51.532;6.766;2022-12-24T03:39:04;9.80;99.90
9980;DHT22;5030;51.532;6.766;2022-12-24T03:41:30;9.80;99.90
9980;DHT22;5030;51.532;6.766;2022-12-24T03:43:56;9.90;99.90
9980;DHT22;5030;51.532;6.766;2022-12-24T03:46:21;9.90;99.90
9980;DHT22;5030;51.532;6.766;2022-12-24T03:48:47;9.80;99.90
9980;DHT22;5030;51.532;6.766;2022-12-24T03:51:18;9.90;99.90
9980;DHT22;5030;51.532;6.766;2022-12-24T03:53:44;9.90;99.90
9980;DHT22;5030;51.532;6.766;2022-12-24T03:56:10;9.90;99.90
9980;DHT22;5030;51.532;6.766;2022-12-24T03:58:35;9.80;99.90
9980;DHT22;5030;51.532;6.766;2022-12-24T04:01:03;9.90;99.90
9980;DHT22;5030;51.532;6.766;2022-12-24T04:03:29;9.80;99.90
9980;DHT22;5030;51.532;6.766;2022-12-24T04:06:07;9.70;99.90
9980;DHT22;5030;51.532;6.766;2022-12-24T04:08:33;9.60;99.90
9980;DHT22;5030;51.532;6.766;2022-12-24T04:10:59;9.60;99.90
9980;DHT22;5030;51.532;6.766;2022-12-24T04:13:25;9.60;99.90
9980;DHT22;5030;51.532;6.766;2022-12-24T04:16:02;9.50;99.90
9980;DHT22;5030;51.532;6.766;2022-12-24T04:18:28;9.40;99.90
9980;DHT22;5030;51.532;6.766;2022-12-24T04:20:55;9.30;99.90
9980;DHT22;5030;51.532;6.766;2022-12-24T04:23:21;9.40;99.90
9980;DHT22;5030;51.532;6.766;2022-12-24T04:25:47;9.50;99.90
9980;DHT22;5030;51.532;6.766;2022-12-24T04:28:13;9.60;99.90
9980;DHT22;5030;51.532;6.766;2022-12-24T04:30:40;9.60;99.90
9980;DHT22;5030;51.532;6.766;2022-12-24T04:33:06;9.60;99.90
9980;DHT22;5030;51.532;6.766;2022-12-24T04:35:32;9.60;99.90
9980;DHT22;5030;51.532;6.766;2022-12-24T04:37:58;9.70;99.90
9980;DHT22;5030;51.532;6.766;2022-12-24T04:40:24;9.70;99.90
9980;DHT22;5030;51.532;6.766;2022-12-24T04:42:50;9.60;99.90
9980;DHT22;5030;51.532;6.766;2022-12-24T04:45:16;9.80;99.90
9980;DHT22;5030;51.532;6.766;2022-12-24T04:47:42;9.90;99.90
9980;DHT22;5030;51.532;6.766;2022-12-24T04:50:08;10.00;99.90
9980;DHT22;5030;51.532;6.766;2022-12-24T04:52:34;10.00;99.90
9980;DHT22;5030;51.532;6.766;2022-12-24T04:55:00;10.10;99.90
9980;DHT22;5030;51.532;6.766;2022-12-24T04:57:25;10.10;99.90
9980;DHT22;5030;51.532;6.766;2022-12-24T04:59:51;10.20;99.90
9980;DHT22;5030;51.532;6.766;2022-12-24T05:02:16;10.20;99.90
9980;DHT22;5030;51.532;6.766;2022-12-24T05:04:42;10.20;99.90
9980;DHT22;5030;51.532;6.766;2022-12-24T05:07:08;10.20;99.90
9980;DHT22;5030;51.532;6.766;2022-12-24T05:09:33;10.20;99.90
9980;DHT22;5030;51.532;6.766;2022-12-24T05:12:00;10.30;99.90
9980;DHT22;5030;51.532;6.766;2022-12-24T05:14:25;10.30;99.90
9980;DHT22;5030;51.532;6.766;2022-12-24T05:16:51;10.20;99.90
9980;DHT22;5030;51.532;6.766;2022-12-24T05:19:17;10.30;99.90
9980;DHT22;5030;51.532;6.766;2022-12-24T05:21:42;10.30;99.90
9980;DHT22;5030;51.532;6.766;2022-12-24T05:24:10;10.30;99.90
9980;DHT22;5030;51.532;6.766;2022-12-24T05:26:56;10.30;99.90
9980;DHT22;5030;51.532;6.766;2022-12-24T05:29:21;10.20;99.90
9980;DHT22;5030;51.532;6.766;2022-12-24T05:31:47;10.20;99.90
9980;DHT22;5030;51.532;6.766;2022-12-24T05:34:14;10.30;99.90
9980;DHT22;5030;51.532;6.766;2022-12-24T05:36:41;10.30;99.90
9980;DHT22;5030;51.532;6.766;2022-12-24T05:39:07;10.30;99.90
9980;DHT22;5030;51.532;6.766;2022-12-24T05:41:33;10.30;99.90
9980;DHT22;5030;51.532;6.766;2022-12-24T05:43:59;10.30;99.90
9980;DHT22;5030;51.532;6.766;2022-12-24T05:46:24;10.30;99.90
9980;DHT22;5030;51.532;6.766;2022-12-24T05:48:51;10.30;99.90
9980;DHT22;5030;51.532;6.766;2022-12-24T05:51:18;10.30;99.90
9980;DHT22;5030;51.532;6.766;2022-12-24T05:53:45;10.30;99.90
9980;DHT22;5030;51.532;6.766;2022-12-24T05:56:20;10.30;99.90
9980;DHT22;5030;51.532;6.766;2022-12-24T05:58:46;10.30;99.90
9980;DHT22;5030;51.532;6.766;2022-12-24T06:01:12;10.40;99.90
9980;DHT22;5030;51.532;6.766;2022-12-24T06:03:38;10.40;99.90
9980;DHT22;5030;51.532;6.766;2022-12-24T06:06:16;10.30;99.90
9980;DHT22;5030;51.532;6.766;2022-12-24T06:08:45;10.30;99.90
9980;DHT22;5030;51.532;6.766;2022-12-24T06:11:13;10.40;99.90
9980;DHT22;5030;51.532;6.766;2022-12-24T06:13:41;10.40;99.90
9980;DHT22;5030;51.532;6.766;2022-12-24T06:16:12;10.30;99.90
9980;DHT22;5030;51.532;6.766;2022-12-24T06:18:38;10.30;99.90
9980;DHT22;5030;51.532;6.766;2022-12-24T06:21:04;10.40;99.90
9980;DHT22;5030;51.532;6.766;2022-12-24T06:23:33;10.30;99.90
9980;DHT22;5030;51.532;6.766;2022-12-24T06:26:00;10.30;99.90
9980;DHT22;5030;51.532;6.766;2022-12-24T06:28:27;10.30;99.90
9980;DHT22;5030;51.532;6.766;2022-12-24T06:30:53;10.40;99.90
9980;DHT22;5030;51.532;6.766;2022-12-24T06:33:19;10.30;99.90
9980;DHT22;5030;51.532;6.766;2022-12-24T06:35:45;10.30;99.90
9980;DHT22;5030;51.532;6.766;2022-12-24T06:38:12;10.20;99.90
9980;DHT22;5030;51.532;6.766;2022-12-24T06:40:38;10.20;99.90
9980;DHT22;5030;51.532;6.766;2022-12-24T06:43:04;10.20;99.90
9980;DHT22;5030;51.532;6.766;2022-12-24T06:45:30;10.20;99.90
9980;DHT22;5030;51.532;6.766;2022-12-24T06:47:56;10.20;99.90
9980;DHT22;5030;51.532;6.766;2022-12-24T06:50:22;10.30;99.90
9980;DHT22;5030;51.532;6.766;2022-12-24T06:52:48;10.40;99.90
9980;DHT22;5030;51.532;6.766;2022-12-24T06:55:14;10.40;99.90
9980;DHT22;5030;51.532;6.766;2022-12-24T06:57:39;10.30;99.90
9980;DHT22;5030;51.532;6.766;2022-12-24T07:00:07;10.20;99.90
9980;DHT22;5030;51.532;6.766;2022-12-24T07:02:33;10.30;99.90
9980;DHT22;5030;51.532;6.766;2022-12-24T07:04:59;10.30;99.90
9980;DHT22;5030;51.532;6.766;2022-12-24T07:07:24;10.30;99.90
9980;DHT22;5030;51.532;6.766;2022-12-24T07:09:50;10.30;99.90
9980;DHT22;5030;51.532;6.766;2022-12-24T07:12:15;10.30;99.90
9980;DHT22;5030;51.532;6.766;2022-12-24T07:14:41;10.40;99.90
9980;DHT22;5030;51.532;6.766;2022-12-24T07:17:06;10.40;99.90
9980;DHT22;5030;51.532;6.766;2022-12-24T07:19:32;10.40;99.90
9980;DHT22;5030;51.532;6.766;2022-12-24T07:21:58;10.30;99.90
9980;DHT22;5030;51.532;6.766;2022-12-24T07:24:24;10.20;99.90
9980;DHT22;5030;51.532;6.766;2022-12-24T07:26:50;10.20;99.90
9980;DHT22;5030;51.532;6.766;2022-12-24T07:29:15;10.30;99.90
9980;DHT22;5030;51.532;6.766;2022-12-24T07:31:41;10.20;99.90
9980;DHT22;5030;51.532;6.766;2022-12-24T07:34:06;10.20;99.90
9980;DHT22;5030;51.532;6.766;2022-12-24T07:36:35;10.30;99.90
9980;DHT22;5030;51.532;6.766;2022-12-24T07:39:00;10.30;99.90
9980;DHT22;5030;51.532;6.766;2022-12-24T07:41:26;10.30;99.90
9980;DHT22;5030;51.532;6.766;2022-12-24T07:43:52;10.20;99.90
9980;DHT22;5030;51.532;6.766;2022-12-24T07:46:17;10.20;99.90
9980;DHT22;5030;51.532;6.766;2022-12-24T07:48:43;10.10;99.90
9980;DHT22;5030;51.532;6.766;2022-12-24T07:51:09;10.10;99.90
9980;DHT22;5030;51.532;6.766;2022-12-24T07:53:34;10.10;99.90
9980;DHT22;5030;51.532;6.766;2022-12-24T07:56:00;10.10;99.90
9980;DHT22;5030;51.532;6.766;2022-12-24T07:58:25;10.10;99.90
9980;DHT22;5030;51.532;6.766;2022-12-24T08:00:56;10.20;99.90
9980;DHT22;5030;51.532;6.766;2022-12-24T08:03:21;10.20;99.90
9980;DHT22;5030;51.532;6.766;2022-12-24T08:05:47;10.20;99.90
9980;DHT22;5030;51.532;6.766;2022-12-24T08:08:13;10.20;99.90
9980;DHT22;5030;51.532;6.766;2022-12-24T08:10:40;10.30;99.90
9980;DHT22;5030;51.532;6.766;2022-12-24T08:13:06;10.30;99.90
9980;DHT22;5030;51.532;6.766;2022-12-24T08:15:31;10.20;99.90
9980;DHT22;5030;51.532;6.766;2022-12-24T08:17:57;10.30;99.90
9980;DHT22;5030;51.532;6.766;2022-12-24T08:20:23;10.30;99.90
9980;DHT22;5030;51.532;6.766;2022-12-24T08:22:48;10.20;99.90
9980;DHT22;5030;51.532;6.766;2022-12-24T08:25:14;10.20;99.90
9980;DHT22;5030;51.532;6.766;2022-12-24T08:27:40;10.20;99.90
9980;DHT22;5030;51.532;6.766;2022-12-24T08:30:07;10.30;99.90
9980;DHT22;5030;51.532;6.766;2022-12-24T08:32:32;10.30;99.90
9980;DHT22;5030;51.532;6.766;2022-12-24T08:34:58;10.30;99.90
9980;DHT22;5030;51.532;6.766;2022-12-24T08:37:24;10.40;99.90
9980;DHT22;5030;51.532;6.766;2022-12-24T08:39:49;10.40;99.90
9980;DHT22;5030;51.532;6.766;2022-12-24T08:42:15;10.40;99.90
9980;DHT22;5030;51.532;6.766;2022-12-24T08:44:41;10.30;99.90
9980;DHT22;5030;51.532;6.766;2022-12-24T08:47:06;10.30;99.90
9980;DHT22;5030;51.532;6.766;2022-12-24T08:49:32;10.30;99.90
9980;DHT22;5030;51.532;6.766;2022-12-24T08:51:57;10.40;99.90
9980;DHT22;5030;51.532;6.766;2022-12-24T08:54:23;10.30;99.90
9980;DHT22;5030;51.532;6.766;2022-12-24T08:56:50;10.30;99.90
9980;DHT22;5030;51.532;6.766;2022-12-24T08:59:15;10.30;99.90
9980;DHT22;5030;51.532;6.766;2022-12-24T09:01:44;10.40;99.90
9980;DHT22;5030;51.532;6.766;2022-12-24T09:04:09;10.50;99.90
9980;DHT22;5030;51.532;6.766;2022-12-24T09:06:35;10.50;99.90
9980;DHT22;5030;51.532;6.766;2022-12-24T09:09:02;10.50;99.90
9980;DHT22;5030;51.532;6.766;2022-12-24T09:11:28;10.50;99.90
9980;DHT22;5030;51.532;6.766;2022-12-24T09:13:54;10.60;99.90
9980;DHT22;5030;51.532;6.766;2022-12-24T09:16:20;10.70;99.90
9980;DHT22;5030;51.532;6.766;2022-12-24T09:18:45;10.70;99.90
9980;DHT22;5030;51.532;6.766;2022-12-24T09:21:14;10.60;99.90
9980;DHT22;5030;51.532;6.766;2022-12-24T09:23:41;10.70;99.90
9980;DHT22;5030;51.532;6.766;2022-12-24T09:26:08;10.80;99.90
9980;DHT22;5030;51.532;6.766;2022-12-24T09:28:34;10.80;99.90
9980;DHT22;5030;51.532;6.766;2022-12-24T09:31:04;10.80;99.90
9980;DHT22;5030;51.532;6.766;2022-12-24T09:33:33;10.70;99.90
9980;DHT22;5030;51.532;6.766;2022-12-24T09:36:00;10.70;99.90
9980;DHT22;5030;51.532;6.766;2022-12-24T09:38:26;10.70;99.90
9980;DHT22;5030;51.532;6.766;2022-12-24T09:40:53;10.70;99.90
9980;DHT22;5030;51.532;6.766;2022-12-24T09:43:22;10.70;99.90
9980;DHT22;5030;51.532;6.766;2022-12-24T09:48:47;10.60;99.90
9980;DHT22;5030;51.532;6.766;2022-12-24T09:54:28;10.50;99.90
9980;DHT22;5030;51.532;6.766;2022-12-24T09:56:56;10.60;99.90
9980;DHT22;5030;51.532;6.766;2022-12-24T09:59:34;10.60;99.90
9980;DHT22;5030;51.532;6.766;2022-12-24T10:02:15;10.60;99.90
9980;DHT22;5030;51.532;6.766;2022-12-24T10:04:42;10.60;99.90
9980;DHT22;5030;51.532;6.766;2022-12-24T10:07:33;10.60;99.90
9980;DHT22;5030;51.532;6.766;2022-12-24T10:10:13;10.70;99.90
9980;DHT22;5030;51.532;6.766;2022-12-24T10:12:54;10.60;99.90
9980;DHT22;5030;51.532;6.766;2022-12-24T10:15:33;10.70;99.90
9980;DHT22;5030;51.532;6.766;2022-12-24T10:21:09;11.00;99.90
9980;DHT22;5030;51.532;6.766;2022-12-24T10:24:06;11.10;99.90
9980;DHT22;5030;51.532;6.766;2022-12-24T10:26:55;11.30;99.90
9980;DHT22;5030;51.532;6.766;2022-12-24T10:29:45;11.40;99.90
9980;DHT22;5030;51.532;6.766;2022-12-24T10:32:27;11.40;99.90
9980;DHT22;5030;51.532;6.766;2022-12-24T10:35:10;11.40;99.90
9980;DHT22;5030;51.532;6.766;2022-12-24T10:37:46;11.30;99.90
9980;DHT22;5030;51.532;6.766;2022-12-24T10:40:29;11.40;99.90
9980;DHT22;5030;51.532;6.766;2022-12-24T10:42:56;11.40;99.90
9980;DHT22;5030;51.532;6.766;2022-12-24T10:45:24;11.50;99.90
9980;DHT22;5030;51.532;6.766;2022-12-24T10:47:56;11.50;99.90
9980;DHT22;5030;51.532;6.766;2022-12-24T10:50:31;11.40;99.90
9980;DHT22;5030;51.532;6.766;2022-12-24T10:53:13;11.60;99.90
9980;DHT22;5030;51.532;6.766;2022-12-24T10:55:42;11.50;99.90
9980;DHT22;5030;51.532;6.766;2022-12-24T10:58:14;11.50;99.90
9980;DHT22;5030;51.532;6.766;2022-12-24T11:00:41;11.50;99.90
9980;DHT22;5030;51.532;6.766;2022-12-24T11:03:31;11.50;99.90
9980;DHT22;5030;51.532;6.766;2022-12-24T11:06:09;11.50;99.90
9980;DHT22;5030;51.532;6.766;2022-12-24T11:08:37;11.60;99.90
9980;DHT22;5030;51.532;6.766;2022-12-24T11:11:16;11.50;99.90
9980;DHT22;5030;51.532;6.766;2022-12-24T11:16:22;11.30;99.90
9980;DHT22;5030;51.532;6.766;2022-12-24T11:18:53;11.30;99.90
9980;DHT22;5030;51.532;6.766;2022-12-24T11:21:46;11.40;99.90
9980;DHT22;5030;51.532;6.766;2022-12-24T11:26:38;11.50;99.90
9980;DHT22;5030;51.532;6.766;2022-12-24T11:31:35;11.40;99.90
9980;DHT22;5030;51.532;6.766;2022-12-24T11:34:18;11.30;99.90
9980;DHT22;5030;51.532;6.766;2022-12-24T11:36:44;11.30;99.90
9980;DHT22;5030;51.532;6.766;2022-12-24T11:39:21;11.40;99.90
9980;DHT22;5030;51.532;6.766;2022-12-24T11:41:52;11.50;99.90
9980;DHT22;5030;51.532;6.766;2022-12-24T11:44:26;11.50;99.90
9980;DHT22;5030;51.532;6.766;2022-12-24T11:46:53;11.50;99.90
9980;DHT22;5030;51.532;6.766;2022-12-24T11:49:31;11.60;99.90
9980;DHT22;5030;51.532;6.766;2022-12-24T11:55:28;11.60;99.90
9980;DHT22;5030;51.532;6.766;2022-12-24T11:58:16;11.60;99.90
9980;DHT22;5030;51.532;6.766;2022-12-24T12:00:45;11.50;99.90
9980;DHT22;5030;51.532;6.766;2022-12-24T12:03:40;11.60;99.90
9980;DHT22;5030;51.532;6.766;2022-12-24T12:06:35;11.70;99.90
9980;DHT22;5030;51.532;6.766;2022-12-24T12:09:06;11.70;99.90
9980;DHT22;5030;51.532;6.766;2022-12-24T12:11:37;11.50;99.90
9980;DHT22;5030;51.532;6.766;2022-12-24T12:14:05;11.50;99.90
9980;DHT22;5030;51.532;6.766;2022-12-24T12:16:54;11.50;99.90
9980;DHT22;5030;51.532;6.766;2022-12-24T12:19:27;11.60;99.90
9980;DHT22;5030;51.532;6.766;2022-12-24T12:21:54;11.50;99.90
9980;DHT22;5030;51.532;6.766;2022-12-24T12:24:32;11.60;99.90
9980;DHT22;5030;51.532;6.766;2022-12-24T12:30:05;11.50;99.90
9980;DHT22;5030;51.532;6.766;2022-12-24T12:35:15;11.40;99.90
9980;DHT22;5030;51.532;6.766;2022-12-24T12:37:47;11.40;99.90
9980;DHT22;5030;51.532;6.766;2022-12-24T12:40:17;11.30;99.90
9980;DHT22;5030;51.532;6.766;2022-12-24T12:43:02;11.20;99.90
9980;DHT22;5030;51.532;6.766;2022-12-24T12:51:24;11.30;99.90
9980;DHT22;5030;51.532;6.766;2022-12-24T12:56:37;11.30;99.90
9980;DHT22;5030;51.532;6.766;2022-12-24T12:59:09;11.30;99.90
9980;DHT22;5030;51.532;6.766;2022-12-24T13:01:48;11.40;99.90
9980;DHT22;5030;51.532;6.766;2022-12-24T13:13:30;11.50;99.90
9980;DHT22;5030;51.532;6.766;2022-12-24T13:18:48;11.60;99.90
9980;DHT22;5030;51.532;6.766;2022-12-24T13:21:24;11.70;99.90
9980;DHT22;5030;51.532;6.766;2022-12-24T13:26:38;11.50;99.90
9980;DHT22;5030;51.532;6.766;2022-12-24T13:29:29;11.40;99.90
9980;DHT22;5030;51.532;6.766;2022-12-24T13:34:55;11.20;99.90
9980;DHT22;5030;51.532;6.766;2022-12-24T13:37:32;11.20;99.90
9980;DHT22;5030;51.532;6.766;2022-12-24T13:45:41;11.00;99.90
9980;DHT22;5030;51.532;6.766;2022-12-24T13:48:30;10.90;99.90
9980;DHT22;5030;51.532;6.766;2022-12-24T13:50:59;10.80;99.90
9980;DHT22;5030;51.532;6.766;2022-12-24T13:56:23;10.90;99.90
9980;DHT22;5030;51.532;6.766;2022-12-24T14:01:55;10.80;99.90
9980;DHT22;5030;51.532;6.766;2022-12-24T14:04:27;10.70;99.90
9980;DHT22;5030;51.532;6.766;2022-12-24T14:06:57;10.70;99.90
9980;DHT22;5030;51.532;6.766;2022-12-24T14:09:24;10.80;99.90
9980;DHT22;5030;51.532;6.766;2022-12-24T14:14:36;10.70;99.90
9980;DHT22;5030;51.532;6.766;2022-12-24T14:17:20;10.70;99.90
9980;DHT22;5030;51.532;6.766;2022-12-24T14:20:00;10.70;99.90
9980;DHT22;5030;51.532;6.766;2022-12-24T14:22:43;10.70;99.90
9980;DHT22;5030;51.532;6.766;2022-12-24T14:25:16;10.60;99.90
9980;DHT22;5030;51.532;6.766;2022-12-24T14:28:04;10.50;99.90
9980;DHT22;5030;51.532;6.766;2022-12-24T14:30:31;10.40;99.90
9980;DHT22;5030;51.532;6.766;2022-12-24T14:32:57;10.40;99.90
9980;DHT22;5030;51.532;6.766;2022-12-24T14:35:24;10.40;99.90
9980;DHT22;5030;51.532;6.766;2022-12-24T14:38:04;10.40;99.90
9980;DHT22;5030;51.532;6.766;2022-12-24T14:40:33;10.50;99.90
9980;DHT22;5030;51.532;6.766;2022-12-24T14:43:26;10.40;99.90
9980;DHT22;5030;51.532;6.766;2022-12-24T14:46:26;10.40;99.90
9980;DHT22;5030;51.532;6.766;2022-12-24T14:49:06;10.50;99.90
9980;DHT22;5030;51.532;6.766;2022-12-24T14:54:31;10.60;99.90
9980;DHT22;5030;51.532;6.766;2022-12-24T14:59:54;10.40;99.90
9980;DHT22;5030;51.532;6.766;2022-12-24T15:05:17;10.30;99.90
9980;DHT22;5030;51.532;6.766;2022-12-24T15:07:49;10.20;99.90
9980;DHT22;5030;51.532;6.766;2022-12-24T15:10:32;10.00;99.90
9980;DHT22;5030;51.532;6.766;2022-12-24T15:13:06;9.90;99.90
9980;DHT22;5030;51.532;6.766;2022-12-24T15:15:34;9.70;99.90
9980;DHT22;5030;51.532;6.766;2022-12-24T15:18:01;9.60;99.90
9980;DHT22;5030;51.532;6.766;2022-12-24T15:20:28;9.40;99.90
9980;DHT22;5030;51.532;6.766;2022-12-24T15:22:56;9.40;99.90
9980;DHT22;5030;51.532;6.766;2022-12-24T15:25:29;9.50;99.90
9980;DHT22;5030;51.532;6.766;2022-12-24T15:27:56;9.40;99.90
9980;DHT22;5030;51.532;6.766;2022-12-24T15:30:26;9.30;99.90
9980;DHT22;5030;51.532;6.766;2022-12-24T15:32:54;9.30;99.90
9980;DHT22;5030;51.532;6.766;2022-12-24T15:35:42;9.30;99.90
9980;DHT22;5030;51.532;6.766;2022-12-24T15:38:29;9.00;99.90
9980;DHT22;5030;51.532;6.766;2022-12-24T15:40:56;8.90;99.90
9980;DHT22;5030;51.532;6.766;2022-12-24T15:43:23;8.80;99.90
9980;DHT22;5030;51.532;6.766;2022-12-24T15:45:49;8.70;99.90
9980;DHT22;5030;51.532;6.766;2022-12-24T15:48:26;8.60;99.90
9980;DHT22;5030;51.532;6.766;2022-12-24T15:50:58;8.60;99.90
9980;DHT22;5030;51.532;6.766;2022-12-24T15:53:30;8.40;99.90
9980;DHT22;5030;51.532;6.766;2022-12-24T15:58:45;8.40;99.90
9980;DHT22;5030;51.532;6.766;2022-12-24T16:06:17;7.90;99.90
9980;DHT22;5030;51.532;6.766;2022-12-24T16:08:44;7.80;99.90
9980;DHT22;5030;51.532;6.766;2022-12-24T16:14:03;7.60;99.90
9980;DHT22;5030;51.532;6.766;2022-12-24T16:16:33;7.50;99.90
9980;DHT22;5030;51.532;6.766;2022-12-24T16:18:59;7.40;99.90
9980;DHT22;5030;51.532;6.766;2022-12-24T16:21:30;7.70;99.90
9980;DHT22;5030;51.532;6.766;2022-12-24T16:24:23;7.60;99.90
9980;DHT22;5030;51.532;6.766;2022-12-24T16:26:49;7.80;99.90
9980;DHT22;5030;51.532;6.766;2022-12-24T16:29:15;7.70;99.90
9980;DHT22;5030;51.532;6.766;2022-12-24T16:31:49;7.70;99.90
9980;DHT22;5030;51.532;6.766;2022-12-24T16:34:16;7.70;99.90
9980;DHT22;5030;51.532;6.766;2022-12-24T16:36:44;7.60;99.90
9980;DHT22;5030;51.532;6.766;2022-12-24T16:39:31;7.60;99.90
9980;DHT22;5030;51.532;6.766;2022-12-24T16:42:00;7.70;99.90
9980;DHT22;5030;51.532;6.766;2022-12-24T16:44:46;7.60;99.90
9980;DHT22;5030;51.532;6.766;2022-12-24T16:47:18;7.70;99.90
9980;DHT22;5030;51.532;6.766;2022-12-24T16:49:45;7.60;99.90
9980;DHT22;5030;51.532;6.766;2022-12-24T16:52:17;7.50;99.90
9980;DHT22;5030;51.532;6.766;2022-12-24T16:54:45;7.40;99.90
9980;DHT22;5030;51.532;6.766;2022-12-24T16:57:10;7.30;99.90
9980;DHT22;5030;51.532;6.766;2022-12-24T16:59:36;7.40;99.90
9980;DHT22;5030;51.532;6.766;2022-12-24T17:02:03;7.30;99.90
9980;DHT22;5030;51.532;6.766;2022-12-24T17:04:31;7.30;99.90
9980;DHT22;5030;51.532;6.766;2022-12-24T17:06:57;7.50;99.90
9980;DHT22;5030;51.532;6.766;2022-12-24T17:09:22;7.60;99.90
9980;DHT22;5030;51.532;6.766;2022-12-24T17:11:48;7.70;99.90
9980;DHT22;5030;51.532;6.766;2022-12-24T17:14:13;7.60;99.90
9980;DHT22;5030;51.532;6.766;2022-12-24T17:16:40;7.60;99.90
9980;DHT22;5030;51.532;6.766;2022-12-24T17:19:06;7.40;99.90
9980;DHT22;5030;51.532;6.766;2022-12-24T17:21:32;7.40;99.90
9980;DHT22;5030;51.532;6.766;2022-12-24T17:23:57;7.50;99.90
9980;DHT22;5030;51.532;6.766;2022-12-24T17:26:23;7.30;99.90
9980;DHT22;5030;51.532;6.766;2022-12-24T17:28:52;7.20;99.90
9980;DHT22;5030;51.532;6.766;2022-12-24T17:31:19;7.10;99.90
9980;DHT22;5030;51.532;6.766;2022-12-24T17:33:47;6.90;99.90
9980;DHT22;5030;51.532;6.766;2022-12-24T17:36:13;6.70;99.90
9980;DHT22;5030;51.532;6.766;2022-12-24T17:38:39;6.60;99.90
9980;DHT22;5030;51.532;6.766;2022-12-24T17:41:08;6.50;99.90
9980;DHT22;5030;51.532;6.766;2022-12-24T17:43:35;6.40;99.90
9980;DHT22;5030;51.532;6.766;2022-12-24T17:46:05;6.30;99.90
9980;DHT22;5030;51.532;6.766;2022-12-24T17:48:33;6.30;99.90
9980;DHT22;5030;51.532;6.766;2022-12-24T17:51:06;6.20;99.90
9980;DHT22;5030;51.532;6.766;2022-12-24T17:53:33;6.10;99.90
9980;DHT22;5030;51.532;6.766;2022-12-24T17:56:00;6.00;99.90
9980;DHT22;5030;51.532;6.766;2022-12-24T17:58:27;6.30;99.90
9980;DHT22;5030;51.532;6.766;2022-12-24T18:00:53;6.10;99.90
9980;DHT22;5030;51.532;6.766;2022-12-24T18:03:20;6.00;99.90
9980;DHT22;5030;51.532;6.766;2022-12-24T18:05:46;6.10;99.90
9980;DHT22;5030;51.532;6.766;2022-12-24T18:08:12;6.30;99.90
9980;DHT22;5030;51.532;6.766;2022-12-24T18:10:37;6.20;99.90
9980;DHT22;5030;51.532;6.766;2022-12-24T18:13:03;6.20;99.90